Main page


Airports :

Glasgow, Scotland

Glasgow Airport

latitude: 55-52N, longitude: 004-26W, elevation: 8 m

Current weather observation

The report was made 24 minutes ago, at 17:20 UTC
Wind 10 kt from the West
Temperature 8°C
Humidity 42%
Pressure 1032 hPa
Visibility 10 km or more

METAR: EGPF 201720Z AUTO 26010KT 9999 NCD 08/M04 Q1032

Time: 17:44 (17:44 UTC)


The report was made 40 minutes ago, at 17:04 UTC
Forecast valid from 20 at 18 UTC to 21 at 18 UTC
Wind 7 kt from the West
Visibility 10 km or more
Few clouds at a height of 3500 ft
from 21 at 04 UTC to 21 at 11 UTC
Visibility: 8000 m
Broken clouds at a height of 800 ft
light rain
Probability 40% :
from 21 at 11 UTC to 21 at 18 UTC
Visibility: 4000 m
Broken clouds at a height of 400 ft
rain, drizzle

TAF: EGPF 201704Z 2018/2118 26007KT 9999 FEW035 TEMPO 2104/2111 8000 -RA BKN008 PROB40 TEMPO 2111/2118 4000 RADZ BKN004

Weather observations and forecasts of more than 4000 airports (METAR and TAF reports).

The available stations are represented by yellow and red dots on the map.

Hover mouse over dot to see the name of the station.

Then click to see weather observations and forecasts.

To change the map : click on the green buttons with a black cross to zoom in, on the green button with a dash to zoom out, or on the green arrows for adjacent maps.